Time;durP1;ratioP1;P1;durP2;ratioP2;P2;SDS_P1;SDS_P2;PMS_P1;PMS_P2;Temp;Humidity;BMP_temperature;BMP_pressure;BME280_temperature;BME280_humidity;BME280_pressure;Samples;Min_cycle;Max_cycle;Signal;HPM_P1;HPM_P2
2022/10/20 03:23:48;;;;;;;1999.90;999.90;;;;;;;;;;5608649;23;20340;-64
2022/10/20 03:26:33;;;;;;;1999.90;999.90;;;;;;;;;;4984786;28;20288;-63
2022/10/20 03:29:18;;;;;;;1999.90;999.90;;;;;;;;;;4990425;28;20289;-67
2022/10/20 03:32:03;;;;;;;1999.90;999.90;;;;;;;;;;4982999;28;20351;-67
2022/10/20 03:34:48;;;;;;;1999.90;999.90;;;;;;;;;;4988762;28;20953;-64
2022/10/20 03:37:33;;;;;;;1999.90;999.90;;;;;;;;;;4979409;28;20242;-63
2022/10/20 03:40:19;;;;;;;1999.90;999.90;;;;;;;;;;4974223;28;20206;-67
2022/10/20 03:43:04;;;;;;;1999.90;999.90;;;;;;;;;;4972058;28;20631;-67
2022/10/20 03:45:49;;;;;;;1999.90;999.90;;;;;;;;;;4979728;28;20225;-67
2022/10/20 03:48:35;;;;;;;1999.90;999.90;;;;;;;;;;4972196;28;20210;-66
2022/10/20 03:51:20;;;;;;;1999.90;999.90;;;;;;;;;;4987109;28;20754;-68
2022/10/20 03:54:04;;;;;;;1999.90;999.90;;;;;;;;;;4973255;28;20234;-68
2022/10/20 03:56:51;;;;;;;1999.90;999.90;;;;;;;;;;4987722;28;20237;-68
2022/10/20 03:59:36;;;;;;;1999.90;999.90;;;;;;;;;;4992808;28;20213;-68
2022/10/20 04:02:25;;;;;;;1999.90;999.90;;;;;;;;;;4987231;28;20213;-68
2022/10/20 04:05:12;;;;;;;1999.90;999.90;;;;;;;;;;4986251;28;20225;-68
2022/10/20 04:07:57;;;;;;;1999.90;999.90;;;;;;;;;;4995709;28;20213;-68
2022/10/20 04:10:42;;;;;;;1999.90;999.90;;;;;;;;;;4986385;28;20228;-67
2022/10/20 04:13:28;;;;;;;1999.90;999.90;;;;;;;;;;4976163;28;20243;-68
2022/10/20 04:16:13;;;;;;;1999.90;999.90;;;;;;;;;;4994640;28;20228;-67
2022/10/20 04:18:58;;;;;;;1999.90;999.90;;;;;;;;;;4993845;28;20235;-68
2022/10/20 04:21:44;;;;;;;1999.90;999.90;;;;;;;;;;4990683;28;20213;-68
2022/10/20 04:24:28;;;;;;;1999.90;999.90;;;;;;;;;;4989272;28;20345;-68
2022/10/20 04:27:13;;;;;;;1999.90;999.90;;;;;;;;;;4994847;28;20287;-66
2022/10/20 04:29:59;;;;;;;1999.90;999.90;;;;;;;;;;4986370;28;20219;-68
2022/10/20 04:32:44;;;;;;;1999.90;999.90;;;;;;;;;;4993637;28;20409;-68
2022/10/20 04:35:29;;;;;;;1999.90;999.90;;;;;;;;;;4986565;28;20330;-68
2022/10/20 04:38:14;;;;;;;1999.90;999.90;;;;;;;;;;4994280;28;20210;-68
2022/10/20 04:41:00;;;;;;;1999.90;999.90;;;;;;;;;;4985941;28;20296;-66
2022/10/20 04:43:49;;;;;;;1999.90;999.90;;;;;;;;;;4993867;28;20241;-66
2022/10/20 04:46:36;;;;;;;1999.90;999.90;;;;;;;;;;4988970;28;20761;-66
2022/10/20 04:49:21;;;;;;;1999.90;999.90;;;;;;;;;;4985767;28;20214;-66
2022/10/20 04:52:06;;;;;;;1999.90;999.90;;;;;;;;;;4994958;28;20574;-66
2022/10/20 04:54:50;;;;;;;1999.90;999.90;;;;;;;;;;4985164;28;20232;-65
2022/10/20 04:57:35;;;;;;;1999.90;999.90;;;;;;;;;;4975175;28;20354;-67
2022/10/20 05:00:20;;;;;;;1999.90;999.90;;;;;;;;;;4986011;28;20218;-66
2022/10/20 05:03:07;;;;;;;1999.90;999.90;;;;;;;;;;4991288;28;20238;-69
2022/10/20 05:05:51;;;;;;;1999.90;999.90;;;;;;;;;;4989578;28;20214;-67
2022/10/20 05:08:36;;;;;;;1999.90;999.90;;;;;;;;;;4987921;28;20227;-68
2022/10/20 05:11:23;;;;;;;1999.90;999.90;;;;;;;;;;4987014;28;20208;-67
2022/10/20 05:14:08;;;;;;;1999.90;999.90;;;;;;;;;;4985365;28;20605;-68
2022/10/20 05:16:53;;;;;;;1999.90;999.90;;;;;;;;;;4994537;28;20222;-68
2022/10/20 05:19:39;;;;;;;1999.90;999.90;;;;;;;;;;4989037;28;20250;-68
2022/10/20 05:22:24;;;;;;;1999.90;999.90;;;;;;;;;;4977843;28;20217;-68
2022/10/20 05:25:09;;;;;;;1999.90;999.90;;;;;;;;;;4985957;28;20217;-68
2022/10/20 05:27:54;;;;;;;1999.90;999.90;;;;;;;;;;4993054;28;20755;-68
2022/10/20 05:30:39;;;;;;;1999.90;999.90;;;;;;;;;;4988979;28;20594;-67
2022/10/20 05:33:24;;;;;;;1999.90;999.90;;;;;;;;;;4985123;28;20330;-68
2022/10/20 05:36:10;;;;;;;1999.90;999.90;;;;;;;;;;4993748;28;20245;-68
2022/10/20 05:38:56;;;;;;;1999.90;999.90;;;;;;;;;;4984764;28;20217;-67
2022/10/20 05:41:41;;;;;;;1999.90;999.90;;;;;;;;;;4993068;28;20215;-68
2022/10/20 05:44:26;;;;;;;1999.90;999.90;;;;;;;;;;4986613;28;20600;-67
2022/10/20 05:47:10;;;;;;;1999.90;999.90;;;;;;;;;;4989274;28;20452;-68
2022/10/20 05:49:55;;;;;;;1999.90;999.90;;;;;;;;;;4990577;28;20584;-67
2022/10/20 05:52:42;;;;;;;1999.90;999.90;;;;;;;;;;4986343;28;20213;-68
2022/10/20 05:55:27;;;;;;;1999.90;999.90;;;;;;;;;;4990484;28;20286;-67
2022/10/20 05:58:12;;;;;;;1999.90;999.90;;;;;;;;;;4984308;28;20747;-67
2022/10/20 06:01:04;;;;;;;1999.90;999.90;;;;;;;;;;4993378;28;20212;-67
2022/10/20 06:03:49;;;;;;;1999.90;999.90;;;;;;;;;;4986561;28;20233;-68
2022/10/20 06:06:35;;;;;;;1999.90;999.90;;;;;;;;;;4982247;28;20407;-66
2022/10/20 06:09:23;;;;;;;1999.90;999.90;;;;;;;;;;4977273;28;20219;-66
2022/10/20 06:12:08;;;;;;;1999.90;999.90;;;;;;;;;;4991734;28;20737;-65
2022/10/20 06:14:53;;;;;;;1999.90;999.90;;;;;;;;;;4991320;28;20257;-65
2022/10/20 06:17:38;;;;;;;1999.90;999.90;;;;;;;;;;4983231;28;20226;-67
2022/10/20 06:20:23;;;;;;;1999.90;999.90;;;;;;;;;;4981394;28;20215;-69
2022/10/20 06:23:08;;;;;;;1999.90;999.90;;;;;;;;;;4972772;28;20298;-67
2022/10/20 06:25:55;;;;;;;1999.90;999.90;;;;;;;;;;4988330;28;20286;-67
2022/10/20 06:28:40;;;;;;;1999.90;999.90;;;;;;;;;;4991338;28;20585;-67
2022/10/20 06:31:26;;;;;;;1999.90;999.90;;;;;;;;;;4991377;28;20208;-67
2022/10/20 06:34:13;;;;;;;1999.90;999.90;;;;;;;;;;4991168;28;20316;-69
2022/10/20 06:36:59;;;;;;;1999.90;999.90;;;;;;;;;;4992599;28;20233;-68
2022/10/20 06:39:43;;;;;;;1999.90;999.90;;;;;;;;;;4993056;28;20213;-68
2022/10/20 06:42:30;;;;;;;1999.90;999.90;;;;;;;;;;4991087;28;20677;-67
2022/10/20 06:45:15;;;;;;;1999.90;999.90;;;;;;;;;;4972112;28;20220;-68
2022/10/20 06:48:00;;;;;;;1999.90;999.90;;;;;;;;;;4988766;28;20249;-65
2022/10/20 06:50:44;;;;;;;1999.90;999.90;;;;;;;;;;4972922;28;20206;-68
2022/10/20 06:53:30;;;;;;;1999.90;999.90;;;;;;;;;;4988401;28;20277;-66
2022/10/20 06:56:17;;;;;;;1999.90;999.90;;;;;;;;;;4989773;28;20214;-68
2022/10/20 06:59:04;;;;;;;1999.90;999.90;;;;;;;;;;4983307;28;20215;-67
2022/10/20 07:01:49;;;;;;;1999.90;999.90;;;;;;;;;;4987042;28;20548;-65
2022/10/20 07:04:34;;;;;;;1999.90;999.90;;;;;;;;;;4990363;28;20235;-67
2022/10/20 07:07:19;;;;;;;1999.90;999.90;;;;;;;;;;4972876;28;20217;-65
2022/10/20 07:10:05;;;;;;;1999.90;999.90;;;;;;;;;;4972704;28;20753;-68
2022/10/20 07:12:50;;;;;;;1999.90;999.90;;;;;;;;;;4988959;28;20595;-67
2022/10/20 07:15:36;;;;;;;1999.90;999.90;;;;;;;;;;4990330;28;20214;-65
2022/10/20 07:18:22;;;;;;;1999.90;999.90;;;;;;;;;;4990742;28;20237;-65
2022/10/20 07:21:08;;;;;;;1999.90;999.90;;;;;;;;;;4971453;28;20488;-65
2022/10/20 07:23:54;;;;;;;1999.90;999.90;;;;;;;;;;4972279;28;20274;-67
2022/10/20 07:26:40;;;;;;;1999.90;999.90;;;;;;;;;;4973134;28;20326;-67
2022/10/20 07:29:25;;;;;;;1999.90;999.90;;;;;;;;;;4976718;28;20270;-68
2022/10/20 07:32:12;;;;;;;1999.90;999.90;;;;;;;;;;4991396;28;20238;-68
2022/10/20 07:34:56;;;;;;;1999.90;999.90;;;;;;;;;;4989885;28;20214;-67
2022/10/20 07:37:41;;;;;;;1999.90;999.90;;;;;;;;;;4977523;28;20239;-68
2022/10/20 07:40:27;;;;;;;1999.90;999.90;;;;;;;;;;4975969;28;20589;-68
2022/10/20 07:43:13;;;;;;;1999.90;999.90;;;;;;;;;;4975962;28;20231;-68
2022/10/20 07:45:58;;;;;;;1999.90;999.90;;;;;;;;;;4993031;28;20759;-68
2022/10/20 07:48:44;;;;;;;1999.90;999.90;;;;;;;;;;4986268;28;20223;-67
2022/10/20 07:51:31;;;;;;;1999.90;999.90;;;;;;;;;;4983641;28;20212;-67
2022/10/20 07:54:15;;;;;;;1999.90;999.90;;;;;;;;;;4988067;28;20231;-67
2022/10/20 07:57:00;;;;;;;1999.90;999.90;;;;;;;;;;4985004;28;20224;-68
2022/10/20 07:59:45;;;;;;;1999.90;999.90;;;;;;;;;;4988484;28;20214;-68
2022/10/20 08:02:30;;;;;;;1999.90;999.90;;;;;;;;;;4993408;28;20227;-68
2022/10/20 08:05:16;;;;;;;1999.90;999.90;;;;;;;;;;4997255;28;20701;-68
2022/10/20 08:08:01;;;;;;;1999.90;999.90;;;;;;;;;;5005623;28;20222;-68
2022/10/20 08:10:46;;;;;;;1999.90;999.90;;;;;;;;;;4992928;28;20225;-70
2022/10/20 08:13:32;;;;;;;1999.90;999.90;;;;;;;;;;4998248;28;20617;-69
2022/10/20 08:16:17;;;;;;;1999.90;999.90;;;;;;;;;;4998325;28;20441;-69
2022/10/20 08:19:02;;;;;;;1999.90;999.90;;;;;;;;;;4987607;28;20215;-70
2022/10/20 08:21:48;;;;;;;1999.90;999.90;;;;;;;;;;5005337;28;20358;-69
2022/10/20 08:24:34;;;;;;;1999.90;999.90;;;;;;;;;;4988837;28;20234;-69
2022/10/20 08:27:18;;;;;;;1999.90;999.90;;;;;;;;;;4990538;28;20579;-68
2022/10/20 08:30:04;;;;;;;1999.90;999.90;;;;;;;;;;4977810;28;20226;-69
2022/10/20 08:32:50;;;;;;;1999.90;999.90;;;;;;;;;;4983946;28;20780;-69
2022/10/20 08:35:35;;;;;;;1999.90;999.90;;;;;;;;;;4975455;28;20486;-69
2022/10/20 08:38:21;;;;;;;1999.90;999.90;;;;;;;;;;4975034;28;20279;-69
2022/10/20 08:41:12;;;;;;;1999.90;999.90;;;;;;;;;;4990266;28;20220;-69
2022/10/20 08:43:57;;;;;;;1999.90;999.90;;;;;;;;;;4994658;28;20317;-69
2022/10/20 08:46:43;;;;;;;1999.90;999.90;;;;;;;;;;4986964;28;20217;-69
2022/10/20 08:49:29;;;;;;;1999.90;999.90;;;;;;;;;;4988323;28;20215;-69
2022/10/20 08:52:15;;;;;;;1999.90;999.90;;;;;;;;;;4993585;28;20697;-69
2022/10/20 08:55:03;;;;;;;1999.90;999.90;;;;;;;;;;4990102;28;20215;-68
2022/10/20 08:57:49;;;;;;;1999.90;999.90;;;;;;;;;;4990592;28;20721;-69
2022/10/20 09:00:36;;;;;;;1999.90;999.90;;;;;;;;;;4993048;28;20219;-68
2022/10/20 09:03:23;;;;;;;1999.90;999.90;;;;;;;;;;4975285;28;20616;-69
2022/10/20 09:06:12;;;;;;;1999.90;999.90;;;;;;;;;;4989542;28;20766;-68
2022/10/20 09:08:57;;;;;;;1999.90;999.90;;;;;;;;;;4975235;28;20681;-68
2022/10/20 09:11:44;;;;;;;1999.90;999.90;;;;;;;;;;4984510;28;20760;-67
2022/10/20 09:14:29;;;;;;;1999.90;999.90;;;;;;;;;;4974991;28;20311;-68
2022/10/20 09:17:16;;;;;;;1999.90;999.90;;;;;;;;;;4992622;28;20354;-68
2022/10/20 09:20:02;;;;;;;1999.90;999.90;;;;;;;;;;4992532;28;20748;-68
2022/10/20 09:22:47;;;;;;;1999.90;999.90;;;;;;;;;;4991426;28;20227;-68
2022/10/20 09:25:33;;;;;;;1999.90;999.90;;;;;;;;;;4974974;28;20208;-68
2022/10/20 09:28:23;;;;;;;1999.90;999.90;;;;;;;;;;4982617;28;20350;-68
2022/10/20 09:31:20;;;;;;;1999.90;999.90;;;;;;;;;;4991646;28;20272;-69
2022/10/20 09:34:19;;;;;;;1999.90;999.90;;;;;;;;;;4994284;28;20726;-69
2022/10/20 09:37:04;;;;;;;1999.90;999.90;;;;;;;;;;4993276;28;20715;-68
2022/10/20 09:39:51;;;;;;;1999.90;999.90;;;;;;;;;;4993085;28;20218;-68
2022/10/20 09:42:37;;;;;;;1999.90;999.90;;;;;;;;;;4986242;28;20285;-69
2022/10/20 09:45:27;;;;;;;1999.90;999.90;;;;;;;;;;4989841;28;20707;-69
2022/10/20 09:48:18;;;;;;;1999.90;999.90;;;;;;;;;;4984804;28;20970;-68
2022/10/20 09:51:05;;;;;;;1999.90;999.90;;;;;;;;;;4988371;28;20212;-69
2022/10/20 09:53:52;;;;;;;1999.90;999.90;;;;;;;;;;4991607;28;20235;-68
2022/10/20 09:56:38;;;;;;;1999.90;999.90;;;;;;;;;;4987781;28;20264;-68
2022/10/20 09:59:26;;;;;;;1999.90;999.90;;;;;;;;;;4989460;28;20242;-68
2022/10/20 10:15:28;;;;;;;1999.90;999.90;;;;;;;;;;5132782;27;20638;-69
2022/10/20 10:18:14;;;;;;;1999.90;999.90;;;;;;;;;;5088228;28;20287;-69
2022/10/20 10:21:00;;;;;;;1999.90;999.90;;;;;;;;;;5087381;28;20218;-66
2022/10/20 10:23:53;;;;;;;1999.90;999.90;;;;;;;;;;5080038;28;20270;-68
2022/10/20 10:26:43;;;;;;;1999.90;999.90;;;;;;;;;;5073590;28;20736;-68
2022/10/20 10:29:29;;;;;;;1999.90;999.90;;;;;;;;;;5076694;28;20207;-68
2022/10/20 10:32:16;;;;;;;1999.90;999.90;;;;;;;;;;5084221;28;20209;-68
2022/10/20 10:35:06;;;;;;;1999.90;999.90;;;;;;;;;;5073754;28;20234;-69
2022/10/20 10:37:52;;;;;;;1999.90;999.90;;;;;;;;;;5080762;28;20669;-69
2022/10/20 10:40:39;;;;;;;1999.90;999.90;;;;;;;;;;5079166;28;20791;-69
2022/10/20 10:43:29;;;;;;;1999.90;999.90;;;;;;;;;;5080034;28;20296;-69
2022/10/20 10:46:17;;;;;;;1999.90;999.90;;;;;;;;;;5085274;28;20742;-69
2022/10/20 10:49:22;;;;;;;1999.90;999.90;;;;;;;;;;5072843;28;20211;-69
2022/10/20 10:52:14;;;;;;;1999.90;999.90;;;;;;;;;;5079763;28;20213;-68
2022/10/20 10:55:05;;;;;;;1999.90;999.90;;;;;;;;;;5068291;28;20227;-68
2022/10/20 10:57:55;;;;;;;1999.90;999.90;;;;;;;;;;5088680;28;20285;-68
2022/10/20 11:00:47;;;;;;;1999.90;999.90;;;;;;;;;;5082244;28;20442;-68
2022/10/20 11:03:48;;;;;;;1999.90;999.90;;;;;;;;;;5081173;28;20233;-69
2022/10/20 11:06:38;;;;;;;1999.90;999.90;;;;;;;;;;5076720;28;20211;-70
2022/10/20 11:09:27;;;;;;;1999.90;999.90;;;;;;;;;;5068280;28;20196;-69
2022/10/20 11:12:24;;;;;;;1999.90;999.90;;;;;;;;;;5087462;28;20288;-68
2022/10/20 11:15:15;;;;;;;1999.90;999.90;;;;;;;;;;5061381;28;20364;-68
2022/10/20 11:18:04;;;;;;;1999.90;999.90;;;;;;;;;;5070260;28;20211;-69
2022/10/20 11:20:53;;;;;;;1999.90;999.90;;;;;;;;;;5069633;28;20209;-68
2022/10/20 11:23:46;;;;;;;1999.90;999.90;;;;;;;;;;5060305;28;20305;-68
2022/10/20 11:26:32;;;;;;;1999.90;999.90;;;;;;;;;;5067269;28;20592;-68
2022/10/20 11:29:21;;;;;;;1999.90;999.90;;;;;;;;;;5066742;28;20289;-68
2022/10/20 11:32:09;;;;;;;1999.90;999.90;;;;;;;;;;5054047;28;20213;-68
2022/10/20 11:34:59;;;;;;;1999.90;999.90;;;;;;;;;;5070775;28;20208;-68
2022/10/20 11:37:47;;;;;;;1999.90;999.90;;;;;;;;;;5066889;28;20219;-69
2022/10/20 11:40:38;;;;;;;1999.90;999.90;;;;;;;;;;5062395;28;20211;-68
2022/10/20 11:43:25;;;;;;;1999.90;999.90;;;;;;;;;;5059439;28;20583;-70
2022/10/20 11:46:12;;;;;;;1999.90;999.90;;;;;;;;;;5072213;28;20205;-68
2022/10/20 11:48:57;;;;;;;1999.90;999.90;;;;;;;;;;5068027;28;20334;-68
2022/10/20 11:51:57;;;;;;;1999.90;999.90;;;;;;;;;;5065547;28;20728;-68
2022/10/20 11:54:53;;;;;;;1999.90;999.90;;;;;;;;;;5064003;28;20226;-68
2022/10/20 11:57:44;;;;;;;1999.90;999.90;;;;;;;;;;5073589;28;20678;-68
2022/10/20 12:00:46;;;;;;;1999.90;999.90;;;;;;;;;;5065221;28;20266;-68
2022/10/20 12:03:49;;;;;;;1999.90;999.90;;;;;;;;;;5065918;28;20290;-67
2022/10/20 12:06:52;;;;;;;1999.90;999.90;;;;;;;;;;5069953;28;20284;-67
2022/10/20 12:10:02;;;;;;;1999.90;999.90;;;;;;;;;;5066951;28;20207;-67
2022/10/20 12:12:53;;;;;;;1999.90;999.90;;;;;;;;;;5067862;28;20483;-67
2022/10/20 12:15:45;;;;;;;1999.90;999.90;;;;;;;;;;5068903;28;20318;-67
2022/10/20 12:18:31;;;;;;;1999.90;999.90;;;;;;;;;;5064939;28;21274;-67
2022/10/20 12:21:35;;;;;;;1999.90;999.90;;;;;;;;;;5070902;28;20207;-69
2022/10/20 12:24:33;;;;;;;1999.90;999.90;;;;;;;;;;5067433;28;20238;-68
2022/10/20 12:27:19;;;;;;;1999.90;999.90;;;;;;;;;;5068043;28;20338;-68
2022/10/20 12:30:25;;;;;;;1999.90;999.90;;;;;;;;;;5067897;28;20275;-67
2022/10/20 12:33:16;;;;;;;1999.90;999.90;;;;;;;;;;5068931;28;20304;-68
2022/10/20 12:36:13;;;;;;;1999.90;999.90;;;;;;;;;;5068290;28;20203;-68
2022/10/20 12:39:10;;;;;;;1999.90;999.90;;;;;;;;;;5066076;28;20705;-68
2022/10/20 12:41:58;;;;;;;1999.90;999.90;;;;;;;;;;5069767;28;20215;-68
2022/10/20 12:44:44;;;;;;;1999.90;999.90;;;;;;;;;;5060661;28;20224;-68
2022/10/20 12:47:31;;;;;;;1999.90;999.90;;;;;;;;;;5065862;28;20206;-68
2022/10/20 12:50:23;;;;;;;1999.90;999.90;;;;;;;;;;5071444;28;20248;-68
2022/10/20 12:53:10;;;;;;;1999.90;999.90;;;;;;;;;;5063834;28;20228;-68
2022/10/20 12:55:57;;;;;;;1999.90;999.90;;;;;;;;;;5069329;28;20203;-68
2022/10/20 12:58:57;;;;;;;1999.90;999.90;;;;;;;;;;5073797;28;20575;-68
2022/10/20 13:02:01;;;;;;;1999.90;999.90;;;;;;;;;;5070361;28;20205;-68
2022/10/20 13:04:56;;;;;;;1999.90;999.90;;;;;;;;;;5068641;28;20437;-68
2022/10/20 13:07:58;;;;;;;1999.90;999.90;;;;;;;;;;5066680;28;20285;-68
2022/10/20 13:10:43;;;;;;;1999.90;999.90;;;;;;;;;;5067423;28;20215;-68
2022/10/20 13:13:43;;;;;;;1999.90;999.90;;;;;;;;;;5065666;28;20819;-67
2022/10/20 13:16:30;;;;;;;1999.90;999.90;;;;;;;;;;5060192;28;20220;-67
2022/10/20 13:19:19;;;;;;;1999.90;999.90;;;;;;;;;;5063570;28;20212;-67
2022/10/20 13:22:23;;;;;;;1999.90;999.90;;;;;;;;;;5076601;28;20215;-68
2022/10/20 13:25:31;;;;;;;1999.90;999.90;;;;;;;;;;5059982;28;20430;-68
2022/10/20 13:28:18;;;;;;;1999.90;999.90;;;;;;;;;;5066535;28;20714;-68
2022/10/20 13:31:14;;;;;;;1999.90;999.90;;;;;;;;;;5069783;28;20207;-68
2022/10/20 13:34:04;;;;;;;1999.90;999.90;;;;;;;;;;5060795;28;20364;-68
2022/10/20 13:36:54;;;;;;;1999.90;999.90;;;;;;;;;;5071580;28;20211;-68
2022/10/20 13:39:45;;;;;;;1999.90;999.90;;;;;;;;;;5065669;28;20216;-68
2022/10/20 13:42:37;;;;;;;1999.90;999.90;;;;;;;;;;5063647;28;20261;-68
2022/10/20 13:45:27;;;;;;;1999.90;999.90;;;;;;;;;;5063700;28;20212;-68
2022/10/20 13:48:18;;;;;;;1999.90;999.90;;;;;;;;;;5066042;28;20579;-68
2022/10/20 13:51:05;;;;;;;1999.90;999.90;;;;;;;;;;5069803;28;20207;-68
2022/10/20 13:53:52;;;;;;;1999.90;999.90;;;;;;;;;;5064859;28;20231;-68
2022/10/20 13:56:39;;;;;;;1999.90;999.90;;;;;;;;;;5063674;28;20306;-68
2022/10/20 13:59:26;;;;;;;1999.90;999.90;;;;;;;;;;5067991;28;20298;-67
2022/10/20 14:02:22;;;;;;;1999.90;999.90;;;;;;;;;;5070297;28;20207;-66
2022/10/20 14:05:10;;;;;;;1999.90;999.90;;;;;;;;;;5071256;28;20722;-68
2022/10/20 14:07:56;;;;;;;1999.90;999.90;;;;;;;;;;5063996;28;20208;-68
2022/10/20 14:10:43;;;;;;;1999.90;999.90;;;;;;;;;;5067859;28;20204;-69
2022/10/20 14:13:30;;;;;;;1999.90;999.90;;;;;;;;;;5063689;28;20296;-68
2022/10/20 14:16:18;;;;;;;1999.90;999.90;;;;;;;;;;5067835;28;20205;-68
2022/10/20 14:19:04;;;;;;;1999.90;999.90;;;;;;;;;;5070241;28;20328;-68
2022/10/20 14:21:49;;;;;;;1999.90;999.90;;;;;;;;;;5059413;28;20205;-68
2022/10/20 14:24:36;;;;;;;1999.90;999.90;;;;;;;;;;5059291;28;20221;-68
2022/10/20 14:27:23;;;;;;;1999.90;999.90;;;;;;;;;;5063591;28;20212;-68
2022/10/20 14:30:08;;;;;;;1999.90;999.90;;;;;;;;;;5062918;28;20896;-67
2022/10/20 14:32:55;;;;;;;1999.90;999.90;;;;;;;;;;5060156;28;20229;-68
2022/10/20 14:35:41;;;;;;;1999.90;999.90;;;;;;;;;;5070383;28;20598;-68
2022/10/20 14:38:36;;;;;;;1999.90;999.90;;;;;;;;;;5067382;28;20308;-68
2022/10/20 14:41:25;;;;;;;1999.90;999.90;;;;;;;;;;5061674;28;20323;-69
2022/10/20 14:44:18;;;;;;;1999.90;999.90;;;;;;;;;;5062613;28;20228;-68
2022/10/20 14:47:04;;;;;;;1999.90;999.90;;;;;;;;;;5067546;28;20213;-68
2022/10/20 14:49:53;;;;;;;1999.90;999.90;;;;;;;;;;5067662;28;20898;-69
2022/10/20 14:52:38;;;;;;;1999.90;999.90;;;;;;;;;;5074623;28;20742;-68
2022/10/20 14:55:27;;;;;;;1999.90;999.90;;;;;;;;;;5064330;28;20217;-69
2022/10/20 14:58:28;;;;;;;1999.90;999.90;;;;;;;;;;5065787;28;20283;-69
2022/10/20 15:01:15;;;;;;;1999.90;999.90;;;;;;;;;;5071852;28;20236;-69
2022/10/20 15:04:13;;;;;;;1999.90;999.90;;;;;;;;;;5068837;28;20236;-68
2022/10/20 15:07:03;;;;;;;1999.90;999.90;;;;;;;;;;5071714;28;20283;-69
2022/10/20 15:09:49;;;;;;;1999.90;999.90;;;;;;;;;;5070702;28;20254;-69
2022/10/20 15:12:38;;;;;;;1999.90;999.90;;;;;;;;;;5064269;28;20220;-69
2022/10/20 15:15:24;;;;;;;1999.90;999.90;;;;;;;;;;5057638;28;20719;-69
2022/10/20 15:18:10;;;;;;;1999.90;999.90;;;;;;;;;;5064995;28;20405;-68
2022/10/20 15:20:56;;;;;;;1999.90;999.90;;;;;;;;;;5067691;28;20697;-67
2022/10/20 15:23:42;;;;;;;1999.90;999.90;;;;;;;;;;5066143;28;20227;-67
2022/10/20 15:26:27;;;;;;;1999.90;999.90;;;;;;;;;;5066463;28;20228;-67
2022/10/20 15:29:12;;;;;;;1999.90;999.90;;;;;;;;;;5066137;28;20213;-68
2022/10/20 15:31:57;;;;;;;1999.90;999.90;;;;;;;;;;5065125;28;20271;-68
2022/10/20 15:34:42;;;;;;;1999.90;999.90;;;;;;;;;;5074864;28;20235;-68
2022/10/20 15:37:26;;;;;;;1999.90;999.90;;;;;;;;;;5062332;28;20802;-68
2022/10/20 15:40:13;;;;;;;1999.90;999.90;;;;;;;;;;5057271;28;20215;-68
2022/10/20 15:42:58;;;;;;;1999.90;999.90;;;;;;;;;;5065774;28;20374;-69
2022/10/20 15:45:44;;;;;;;1999.90;999.90;;;;;;;;;;5063868;28;20224;-69
2022/10/20 15:48:29;;;;;;;1999.90;999.90;;;;;;;;;;5064589;28;20209;-69
2022/10/20 15:51:16;;;;;;;1999.90;999.90;;;;;;;;;;5066758;28;20329;-68
2022/10/20 15:54:02;;;;;;;1999.90;999.90;;;;;;;;;;5071719;28;20286;-69
2022/10/20 15:56:48;;;;;;;1999.90;999.90;;;;;;;;;;5069843;28;20288;-68
2022/10/20 15:59:33;;;;;;;1999.90;999.90;;;;;;;;;;5061676;28;20276;-67
2022/10/20 16:02:18;;;;;;;1999.90;999.90;;;;;;;;;;5069951;28;20308;-70
2022/10/20 16:05:03;;;;;;;1999.90;999.90;;;;;;;;;;5061079;28;20233;-70
2022/10/20 16:07:49;;;;;;;1999.90;999.90;;;;;;;;;;5065437;28;20208;-69
2022/10/20 16:10:34;;;;;;;1999.90;999.90;;;;;;;;;;5067766;28;20219;-69
2022/10/20 16:13:20;;;;;;;1999.90;999.90;;;;;;;;;;5068515;28;20973;-68
2022/10/20 16:16:05;;;;;;;1999.90;999.90;;;;;;;;;;5062635;28;20211;-70
2022/10/20 16:18:50;;;;;;;1999.90;999.90;;;;;;;;;;5062465;28;20292;-70
2022/10/20 16:21:35;;;;;;;1999.90;999.90;;;;;;;;;;5062081;28;20706;-68
2022/10/20 16:24:20;;;;;;;1999.90;999.90;;;;;;;;;;5054482;28;20317;-68
2022/10/20 16:27:05;;;;;;;1999.90;999.90;;;;;;;;;;5063370;28;20220;-69
2022/10/20 16:29:51;;;;;;;1999.90;999.90;;;;;;;;;;5064647;28;20237;-68
2022/10/20 16:32:37;;;;;;;1999.90;999.90;;;;;;;;;;5061288;28;20270;-68
2022/10/20 16:35:22;;;;;;;1999.90;999.90;;;;;;;;;;5057370;28;20677;-68
2022/10/20 16:38:07;;;;;;;1999.90;999.90;;;;;;;;;;5064883;28;20229;-68
2022/10/20 16:40:58;;;;;;;1999.90;999.90;;;;;;;;;;5065275;28;20211;-69
2022/10/20 16:43:44;;;;;;;1999.90;999.90;;;;;;;;;;5068254;28;20309;-68
2022/10/20 16:46:30;;;;;;;1999.90;999.90;;;;;;;;;;5060425;28;20230;-68
2022/10/20 16:49:16;;;;;;;1999.90;999.90;;;;;;;;;;5064757;28;20212;-69
2022/10/20 16:52:00;;;;;;;1999.90;999.90;;;;;;;;;;5064548;28;20573;-68
2022/10/20 16:54:45;;;;;;;1999.90;999.90;;;;;;;;;;5070121;28;20223;-68
2022/10/20 16:57:36;;;;;;;1999.90;999.90;;;;;;;;;;5075979;28;20226;-69
2022/10/20 17:00:21;;;;;;;1999.90;999.90;;;;;;;;;;5065996;28;20203;-69
2022/10/20 17:03:07;;;;;;;1999.90;999.90;;;;;;;;;;5078805;28;20231;-68
2022/10/20 17:05:56;;;;;;;1999.90;999.90;;;;;;;;;;5072074;28;20305;-68
2022/10/20 17:08:41;;;;;;;1999.90;999.90;;;;;;;;;;5071592;28;20204;-69
2022/10/20 17:11:27;;;;;;;1999.90;999.90;;;;;;;;;;5060706;28;20207;-68
2022/10/20 17:14:12;;;;;;;1999.90;999.90;;;;;;;;;;5054757;28;20243;-68
2022/10/20 17:16:58;;;;;;;1999.90;999.90;;;;;;;;;;5063954;28;20203;-68
2022/10/20 17:19:44;;;;;;;1999.90;999.90;;;;;;;;;;5065629;28;20217;-69
2022/10/20 17:22:29;;;;;;;1999.90;999.90;;;;;;;;;;5065545;28;20212;-68
2022/10/20 17:25:14;;;;;;;1999.90;999.90;;;;;;;;;;5061178;28;20309;-68
2022/10/20 17:28:00;;;;;;;1999.90;999.90;;;;;;;;;;5068269;28;20210;-69
2022/10/20 17:30:46;;;;;;;1999.90;999.90;;;;;;;;;;5065169;28;20269;-68
2022/10/20 17:33:31;;;;;;;1999.90;999.90;;;;;;;;;;5065637;28;20285;-67
2022/10/20 17:36:24;;;;;;;1999.90;999.90;;;;;;;;;;5075927;28;20253;-68
2022/10/20 17:39:13;;;;;;;1999.90;999.90;;;;;;;;;;5071380;28;20409;-69
2022/10/20 17:41:58;;;;;;;1999.90;999.90;;;;;;;;;;5061301;28;20284;-68
2022/10/20 17:44:43;;;;;;;1999.90;999.90;;;;;;;;;;5069024;28;20234;-71
2022/10/20 17:47:28;;;;;;;1999.90;999.90;;;;;;;;;;5064231;28;20216;-67
2022/10/20 17:50:13;;;;;;;1999.90;999.90;;;;;;;;;;5062965;28;20252;-68
2022/10/20 17:53:00;;;;;;;1999.90;999.90;;;;;;;;;;5060750;28;20362;-68
2022/10/20 17:55:45;;;;;;;1999.90;999.90;;;;;;;;;;5070890;28;20381;-68
2022/10/20 17:58:32;;;;;;;1999.90;999.90;;;;;;;;;;5078551;28;20226;-69
2022/10/20 18:01:19;;;;;;;1999.90;999.90;;;;;;;;;;5069052;28;20330;-68
2022/10/20 18:04:05;;;;;;;1999.90;999.90;;;;;;;;;;5065003;28;20517;-68
2022/10/20 18:06:50;;;;;;;1999.90;999.90;;;;;;;;;;5060501;28;20250;-68
2022/10/20 18:09:36;;;;;;;1999.90;999.90;;;;;;;;;;5065893;28;20579;-68
2022/10/20 18:12:21;;;;;;;1999.90;999.90;;;;;;;;;;5070633;28;20743;-69
2022/10/20 18:15:07;;;;;;;1999.90;999.90;;;;;;;;;;5055185;28;20313;-68
2022/10/20 18:17:51;;;;;;;1999.90;999.90;;;;;;;;;;5063406;28;20225;-69
2022/10/20 18:20:36;;;;;;;1999.90;999.90;;;;;;;;;;5072574;28;20334;-68
2022/10/20 18:23:21;;;;;;;1999.90;999.90;;;;;;;;;;5068521;28;20253;-69
2022/10/20 18:26:08;;;;;;;1999.90;999.90;;;;;;;;;;5068640;28;20221;-69
2022/10/20 18:28:53;;;;;;;1999.90;999.90;;;;;;;;;;5072873;28;20226;-69
2022/10/20 18:31:40;;;;;;;1999.90;999.90;;;;;;;;;;5071529;28;20205;-70
2022/10/20 18:34:25;;;;;;;1999.90;999.90;;;;;;;;;;5068620;28;20233;-68
2022/10/20 18:37:13;;;;;;;1999.90;999.90;;;;;;;;;;5065338;28;20261;-68
2022/10/20 18:39:59;;;;;;;1999.90;999.90;;;;;;;;;;5078395;28;20708;-69
2022/10/20 18:42:45;;;;;;;1999.90;999.90;;;;;;;;;;5081417;28;20207;-68
2022/10/20 18:45:30;;;;;;;1999.90;999.90;;;;;;;;;;5067459;28;20718;-69
2022/10/20 18:48:15;;;;;;;1999.90;999.90;;;;;;;;;;5061896;28;20215;-69
2022/10/20 18:51:01;;;;;;;1999.90;999.90;;;;;;;;;;5075407;28;20223;-68
2022/10/20 18:53:47;;;;;;;1999.90;999.90;;;;;;;;;;5070838;28;20250;-69
2022/10/20 18:56:32;;;;;;;1999.90;999.90;;;;;;;;;;5084929;28;20417;-69
2022/10/20 18:59:19;;;;;;;1999.90;999.90;;;;;;;;;;5095524;28;20264;-68
2022/10/20 19:02:04;;;;;;;1999.90;999.90;;;;;;;;;;5074167;28;20218;-68
2022/10/20 19:04:49;;;;;;;1999.90;999.90;;;;;;;;;;5069697;28;20231;-68
2022/10/20 19:07:34;;;;;;;1999.90;999.90;;;;;;;;;;5068844;28;20213;-69
2022/10/20 19:10:19;;;;;;;1999.90;999.90;;;;;;;;;;5066748;28;20337;-68